sensor_id;sensor_type;location;lat;lon;timestamp;P1;durP1;ratioP1;P2;durP2;ratioP2
8594;SDS011;4335;48.860;9.198;2022-07-22T00:01:44;11.43;;;6.30;;
8594;SDS011;4335;48.860;9.198;2022-07-22T00:04:11;6.50;;;5.80;;
8594;SDS011;4335;48.860;9.198;2022-07-22T00:06:38;6.80;;;6.17;;
8594;SDS011;4335;48.860;9.198;2022-07-22T00:09:05;6.83;;;6.03;;
8594;SDS011;4335;48.860;9.198;2022-07-22T00:11:32;6.40;;;5.70;;
8594;SDS011;4335;48.860;9.198;2022-07-22T00:14:04;8.40;;;7.30;;
8594;SDS011;4335;48.860;9.198;2022-07-22T00:16:31;8.47;;;7.43;;
8594;SDS011;4335;48.860;9.198;2022-07-22T00:18:58;8.23;;;6.30;;
8594;SDS011;4335;48.860;9.198;2022-07-22T00:21:27;7.20;;;6.50;;
8594;SDS011;4335;48.860;9.198;2022-07-22T00:23:55;7.50;;;6.80;;
8594;SDS011;4335;48.860;9.198;2022-07-22T00:26:21;8.07;;;6.03;;
8594;SDS011;4335;48.860;9.198;2022-07-22T00:28:48;6.27;;;5.67;;
8594;SDS011;4335;48.860;9.198;2022-07-22T00:31:15;7.20;;;6.47;;
8594;SDS011;4335;48.860;9.198;2022-07-22T00:33:42;6.97;;;6.37;;
8594;SDS011;4335;48.860;9.198;2022-07-22T00:36:08;7.20;;;6.50;;
8594;SDS011;4335;48.860;9.198;2022-07-22T00:38:35;6.77;;;6.17;;
8594;SDS011;4335;48.860;9.198;2022-07-22T00:41:02;7.40;;;6.60;;
8594;SDS011;4335;48.860;9.198;2022-07-22T00:46:20;6.33;;;5.73;;
8594;SDS011;4335;48.860;9.198;2022-07-22T00:48:48;6.73;;;6.13;;
8594;SDS011;4335;48.860;9.198;2022-07-22T00:51:21;7.23;;;6.20;;
8594;SDS011;4335;48.860;9.198;2022-07-22T00:53:54;6.70;;;5.80;;
8594;SDS011;4335;48.860;9.198;2022-07-22T00:56:28;6.73;;;6.23;;
8594;SDS011;4335;48.860;9.198;2022-07-22T00:58:57;7.00;;;6.33;;
8594;SDS011;4335;48.860;9.198;2022-07-22T01:01:25;6.43;;;5.83;;
8594;SDS011;4335;48.860;9.198;2022-07-22T01:03:52;7.27;;;6.20;;
8594;SDS011;4335;48.860;9.198;2022-07-22T01:06:19;6.97;;;6.37;;
8594;SDS011;4335;48.860;9.198;2022-07-22T01:08:49;6.73;;;6.13;;
8594;SDS011;4335;48.860;9.198;2022-07-22T01:11:19;7.20;;;6.50;;
8594;SDS011;4335;48.860;9.198;2022-07-22T01:13:50;6.87;;;6.27;;
8594;SDS011;4335;48.860;9.198;2022-07-22T01:16:17;8.13;;;6.20;;
8594;SDS011;4335;48.860;9.198;2022-07-22T01:18:44;7.73;;;6.10;;
8594;SDS011;4335;48.860;9.198;2022-07-22T01:21:13;7.40;;;5.77;;
8594;SDS011;4335;48.860;9.198;2022-07-22T01:23:40;6.77;;;6.17;;
8594;SDS011;4335;48.860;9.198;2022-07-22T01:26:08;7.80;;;6.43;;
8594;SDS011;4335;48.860;9.198;2022-07-22T01:28:40;7.50;;;6.80;;
8594;SDS011;4335;48.860;9.198;2022-07-22T01:31:10;7.57;;;6.73;;
8594;SDS011;4335;48.860;9.198;2022-07-22T01:33:37;7.90;;;6.17;;
8594;SDS011;4335;48.860;9.198;2022-07-22T01:36:11;6.90;;;6.20;;
8594;SDS011;4335;48.860;9.198;2022-07-22T01:38:39;8.87;;;7.40;;
8594;SDS011;4335;48.860;9.198;2022-07-22T01:41:08;7.47;;;6.77;;
8594;SDS011;4335;48.860;9.198;2022-07-22T01:43:40;8.63;;;7.07;;
8594;SDS011;4335;48.860;9.198;2022-07-22T01:46:07;7.60;;;6.57;;
8594;SDS011;4335;48.860;9.198;2022-07-22T01:48:34;8.37;;;7.47;;
8594;SDS011;4335;48.860;9.198;2022-07-22T01:51:01;7.67;;;7.00;;
8594;SDS011;4335;48.860;9.198;2022-07-22T01:53:29;9.93;;;6.57;;
8594;SDS011;4335;48.860;9.198;2022-07-22T01:55:55;9.33;;;7.63;;
8594;SDS011;4335;48.860;9.198;2022-07-22T01:58:22;9.83;;;7.37;;
8594;SDS011;4335;48.860;9.198;2022-07-22T02:00:52;8.60;;;7.47;;
8594;SDS011;4335;48.860;9.198;2022-07-22T02:03:19;8.23;;;7.33;;
8594;SDS011;4335;48.860;9.198;2022-07-22T02:05:45;8.33;;;6.73;;
8594;SDS011;4335;48.860;9.198;2022-07-22T02:08:15;9.53;;;7.00;;
8594;SDS011;4335;48.860;9.198;2022-07-22T02:10:43;8.53;;;7.03;;
8594;SDS011;4335;48.860;9.198;2022-07-22T02:13:13;8.23;;;7.43;;
8594;SDS011;4335;48.860;9.198;2022-07-22T02:15:43;8.07;;;7.27;;
8594;SDS011;4335;48.860;9.198;2022-07-22T02:18:13;7.47;;;6.73;;
8594;SDS011;4335;48.860;9.198;2022-07-22T02:20:40;8.57;;;7.00;;
8594;SDS011;4335;48.860;9.198;2022-07-22T02:23:14;7.70;;;7.00;;
8594;SDS011;4335;48.860;9.198;2022-07-22T02:25:41;7.50;;;6.77;;
8594;SDS011;4335;48.860;9.198;2022-07-22T02:28:09;8.67;;;7.87;;
8594;SDS011;4335;48.860;9.198;2022-07-22T02:30:35;7.80;;;7.00;;
8594;SDS011;4335;48.860;9.198;2022-07-22T02:33:02;8.20;;;7.50;;
8594;SDS011;4335;48.860;9.198;2022-07-22T02:35:32;7.73;;;7.03;;
8594;SDS011;4335;48.860;9.198;2022-07-22T02:37:58;8.10;;;7.00;;
8594;SDS011;4335;48.860;9.198;2022-07-22T02:40:25;8.50;;;7.60;;
8594;SDS011;4335;48.860;9.198;2022-07-22T02:42:55;7.80;;;6.77;;
8594;SDS011;4335;48.860;9.198;2022-07-22T02:45:22;8.63;;;6.90;;
8594;SDS011;4335;48.860;9.198;2022-07-22T02:47:50;7.70;;;7.00;;
8594;SDS011;4335;48.860;9.198;2022-07-22T02:50:19;8.13;;;7.33;;
8594;SDS011;4335;48.860;9.198;2022-07-22T02:52:49;8.47;;;6.87;;
8594;SDS011;4335;48.860;9.198;2022-07-22T02:55:16;7.60;;;6.77;;
8594;SDS011;4335;48.860;9.198;2022-07-22T02:57:45;7.20;;;6.30;;
8594;SDS011;4335;48.860;9.198;2022-07-22T03:00:13;9.43;;;7.70;;
8594;SDS011;4335;48.860;9.198;2022-07-22T03:02:40;8.27;;;7.47;;
8594;SDS011;4335;48.860;9.198;2022-07-22T03:05:08;11.77;;;8.10;;
8594;SDS011;4335;48.860;9.198;2022-07-22T03:07:35;8.33;;;7.63;;
8594;SDS011;4335;48.860;9.198;2022-07-22T03:10:02;8.47;;;7.67;;
8594;SDS011;4335;48.860;9.198;2022-07-22T03:12:30;8.43;;;7.63;;
8594;SDS011;4335;48.860;9.198;2022-07-22T03:14:59;10.30;;;9.13;;
8594;SDS011;4335;48.860;9.198;2022-07-22T03:17:27;8.67;;;7.87;;
8594;SDS011;4335;48.860;9.198;2022-07-22T03:19:53;8.97;;;8.07;;
8594;SDS011;4335;48.860;9.198;2022-07-22T03:22:23;8.03;;;7.30;;
8594;SDS011;4335;48.860;9.198;2022-07-22T03:24:50;10.27;;;9.27;;
8594;SDS011;4335;48.860;9.198;2022-07-22T03:27:17;14.17;;;8.73;;
8594;SDS011;4335;48.860;9.198;2022-07-22T03:29:43;9.23;;;8.23;;
8594;SDS011;4335;48.860;9.198;2022-07-22T03:32:10;9.07;;;8.17;;
8594;SDS011;4335;48.860;9.198;2022-07-22T03:34:37;9.40;;;8.43;;
8594;SDS011;4335;48.860;9.198;2022-07-22T03:37:04;9.23;;;8.23;;
8594;SDS011;4335;48.860;9.198;2022-07-22T03:39:31;11.07;;;8.07;;
8594;SDS011;4335;48.860;9.198;2022-07-22T03:42:00;8.83;;;7.97;;
8594;SDS011;4335;48.860;9.198;2022-07-22T03:44:30;10.50;;;8.87;;
8594;SDS011;4335;48.860;9.198;2022-07-22T03:46:59;10.53;;;8.93;;
8594;SDS011;4335;48.860;9.198;2022-07-22T03:49:32;10.77;;;8.67;;
8594;SDS011;4335;48.860;9.198;2022-07-22T03:51:59;9.70;;;8.07;;
8594;SDS011;4335;48.860;9.198;2022-07-22T03:54:32;10.90;;;8.60;;
8594;SDS011;4335;48.860;9.198;2022-07-22T03:57:05;12.83;;;9.43;;
8594;SDS011;4335;48.860;9.198;2022-07-22T03:59:34;9.07;;;8.10;;
8594;SDS011;4335;48.860;9.198;2022-07-22T04:02:01;9.67;;;8.70;;
8594;SDS011;4335;48.860;9.198;2022-07-22T04:04:28;9.30;;;8.33;;
8594;SDS011;4335;48.860;9.198;2022-07-22T04:06:55;10.17;;;8.67;;
8594;SDS011;4335;48.860;9.198;2022-07-22T04:09:22;9.17;;;8.37;;
8594;SDS011;4335;48.860;9.198;2022-07-22T04:11:52;9.73;;;8.73;;
8594;SDS011;4335;48.860;9.198;2022-07-22T04:14:28;9.33;;;8.43;;
8594;SDS011;4335;48.860;9.198;2022-07-22T04:16:54;9.47;;;7.93;;
8594;SDS011;4335;48.860;9.198;2022-07-22T04:19:24;11.13;;;8.73;;
8594;SDS011;4335;48.860;9.198;2022-07-22T04:21:54;9.23;;;8.30;;
8594;SDS011;4335;48.860;9.198;2022-07-22T04:24:27;8.80;;;8.00;;
8594;SDS011;4335;48.860;9.198;2022-07-22T04:26:54;8.63;;;7.83;;
8594;SDS011;4335;48.860;9.198;2022-07-22T04:29:21;10.27;;;7.90;;
8594;SDS011;4335;48.860;9.198;2022-07-22T04:31:53;8.53;;;7.13;;
8594;SDS011;4335;48.860;9.198;2022-07-22T04:34:20;10.80;;;8.53;;
8594;SDS011;4335;48.860;9.198;2022-07-22T04:36:52;8.03;;;7.23;;
8594;SDS011;4335;48.860;9.198;2022-07-22T04:39:18;9.43;;;8.50;;
8594;SDS011;4335;48.860;9.198;2022-07-22T04:41:53;10.03;;;8.73;;
8594;SDS011;4335;48.860;9.198;2022-07-22T04:44:26;8.27;;;7.53;;
8594;SDS011;4335;48.860;9.198;2022-07-22T04:46:53;9.50;;;8.60;;
8594;SDS011;4335;48.860;9.198;2022-07-22T04:49:19;9.03;;;7.90;;
8594;SDS011;4335;48.860;9.198;2022-07-22T04:51:46;10.10;;;8.10;;
8594;SDS011;4335;48.860;9.198;2022-07-22T04:54:15;9.23;;;7.83;;
8594;SDS011;4335;48.860;9.198;2022-07-22T04:56:42;8.47;;;7.50;;
8594;SDS011;4335;48.860;9.198;2022-07-22T04:59:10;9.20;;;7.77;;
8594;SDS011;4335;48.860;9.198;2022-07-22T05:01:36;9.00;;;8.00;;
8594;SDS011;4335;48.860;9.198;2022-07-22T05:04:03;8.73;;;7.93;;
8594;SDS011;4335;48.860;9.198;2022-07-22T05:06:30;9.33;;;7.97;;
8594;SDS011;4335;48.860;9.198;2022-07-22T05:08:57;8.57;;;7.70;;
8594;SDS011;4335;48.860;9.198;2022-07-22T05:11:23;9.30;;;7.70;;
8594;SDS011;4335;48.860;9.198;2022-07-22T05:13:50;9.90;;;8.83;;
8594;SDS011;4335;48.860;9.198;2022-07-22T05:16:17;13.70;;;8.43;;
8594;SDS011;4335;48.860;9.198;2022-07-22T05:18:47;8.70;;;7.80;;
8594;SDS011;4335;48.860;9.198;2022-07-22T05:21:16;8.43;;;7.60;;
8594;SDS011;4335;48.860;9.198;2022-07-22T05:23:43;8.30;;;7.50;;
8594;SDS011;4335;48.860;9.198;2022-07-22T05:26:10;8.23;;;7.53;;
8594;SDS011;4335;48.860;9.198;2022-07-22T05:28:37;7.87;;;7.17;;
8594;SDS011;4335;48.860;9.198;2022-07-22T05:31:06;8.50;;;7.70;;
8594;SDS011;4335;48.860;9.198;2022-07-22T05:33:34;8.50;;;7.60;;
8594;SDS011;4335;48.860;9.198;2022-07-22T05:36:01;8.27;;;7.57;;
8594;SDS011;4335;48.860;9.198;2022-07-22T05:38:28;8.83;;;7.93;;
8594;SDS011;4335;48.860;9.198;2022-07-22T05:40:58;8.47;;;7.70;;
8594;SDS011;4335;48.860;9.198;2022-07-22T05:43:24;8.93;;;7.20;;
8594;SDS011;4335;48.860;9.198;2022-07-22T05:45:51;8.20;;;7.40;;
8594;SDS011;4335;48.860;9.198;2022-07-22T05:48:18;8.63;;;7.83;;
8594;SDS011;4335;48.860;9.198;2022-07-22T05:50:45;7.90;;;7.17;;
8594;SDS011;4335;48.860;9.198;2022-07-22T05:53:12;9.10;;;8.23;;
8594;SDS011;4335;48.860;9.198;2022-07-22T05:55:39;10.10;;;8.57;;
8594;SDS011;4335;48.860;9.198;2022-07-22T05:58:08;11.10;;;8.23;;
8594;SDS011;4335;48.860;9.198;2022-07-22T06:00:35;8.48;;;7.78;;
8594;SDS011;4335;48.860;9.198;2022-07-22T06:03:05;8.30;;;7.50;;
8594;SDS011;4335;48.860;9.198;2022-07-22T06:05:32;10.10;;;7.10;;
8594;SDS011;4335;48.860;9.198;2022-07-22T06:08:01;10.80;;;7.93;;
8594;SDS011;4335;48.860;9.198;2022-07-22T06:10:28;8.32;;;7.53;;
8594;SDS011;4335;48.860;9.198;2022-07-22T06:12:55;8.43;;;7.70;;
8594;SDS011;4335;48.860;9.198;2022-07-22T06:15:22;6.93;;;6.22;;
8594;SDS011;4335;48.860;9.198;2022-07-22T06:17:50;7.90;;;7.10;;
8594;SDS011;4335;48.860;9.198;2022-07-22T06:20:26;8.38;;;7.57;;
8594;SDS011;4335;48.860;9.198;2022-07-22T06:22:56;7.20;;;6.50;;
8594;SDS011;4335;48.860;9.198;2022-07-22T06:25:26;7.43;;;6.72;;
8594;SDS011;4335;48.860;9.198;2022-07-22T06:27:56;7.72;;;7.03;;
8594;SDS011;4335;48.860;9.198;2022-07-22T06:30:22;7.97;;;7.28;;
8594;SDS011;4335;48.860;9.198;2022-07-22T06:32:49;7.03;;;6.35;;
8594;SDS011;4335;48.860;9.198;2022-07-22T06:35:16;10.88;;;8.05;;
8594;SDS011;4335;48.860;9.198;2022-07-22T06:37:45;9.65;;;7.03;;
8594;SDS011;4335;48.860;9.198;2022-07-22T06:40:12;8.40;;;6.45;;
8594;SDS011;4335;48.860;9.198;2022-07-22T06:42:39;7.78;;;6.97;;
8594;SDS011;4335;48.860;9.198;2022-07-22T06:45:17;7.82;;;7.13;;
8594;SDS011;4335;48.860;9.198;2022-07-22T06:47:50;6.97;;;6.28;;
8594;SDS011;4335;48.860;9.198;2022-07-22T06:50:17;7.20;;;6.60;;
8594;SDS011;4335;48.860;9.198;2022-07-22T06:52:50;7.18;;;6.57;;
8594;SDS011;4335;48.860;9.198;2022-07-22T06:55:17;8.07;;;7.32;;
8594;SDS011;4335;48.860;9.198;2022-07-22T06:57:48;7.25;;;6.55;;
8594;SDS011;4335;48.860;9.198;2022-07-22T07:00:15;7.88;;;7.18;;
8594;SDS011;4335;48.860;9.198;2022-07-22T07:02:42;8.45;;;7.57;;
8594;SDS011;4335;48.860;9.198;2022-07-22T07:05:10;7.97;;;7.18;;
8594;SDS011;4335;48.860;9.198;2022-07-22T07:07:37;8.20;;;7.40;;
8594;SDS011;4335;48.860;9.198;2022-07-22T07:10:07;7.55;;;6.85;;
8594;SDS011;4335;48.860;9.198;2022-07-22T07:12:36;7.20;;;6.50;;
8594;SDS011;4335;48.860;9.198;2022-07-22T07:15:04;8.48;;;6.63;;
8594;SDS011;4335;48.860;9.198;2022-07-22T07:17:35;7.30;;;6.60;;
8594;SDS011;4335;48.860;9.198;2022-07-22T07:20:02;9.48;;;6.57;;
8594;SDS011;4335;48.860;9.198;2022-07-22T07:22:32;7.30;;;6.70;;
8594;SDS011;4335;48.860;9.198;2022-07-22T07:25:07;8.07;;;7.38;;
8594;SDS011;4335;48.860;9.198;2022-07-22T07:27:34;8.48;;;7.72;;
8594;SDS011;4335;48.860;9.198;2022-07-22T07:30:02;10.60;;;7.47;;
8594;SDS011;4335;48.860;9.198;2022-07-22T07:32:31;10.10;;;7.60;;
8594;SDS011;4335;48.860;9.198;2022-07-22T07:34:58;8.43;;;7.47;;
8594;SDS011;4335;48.860;9.198;2022-07-22T07:37:28;9.10;;;8.30;;
8594;SDS011;4335;48.860;9.198;2022-07-22T07:39:54;8.20;;;7.40;;
8594;SDS011;4335;48.860;9.198;2022-07-22T07:42:21;8.80;;;8.10;;
8594;SDS011;4335;48.860;9.198;2022-07-22T07:44:47;9.93;;;8.90;;
8594;SDS011;4335;48.860;9.198;2022-07-22T07:47:15;9.43;;;8.45;;
8594;SDS011;4335;48.860;9.198;2022-07-22T07:49:44;8.07;;;7.22;;
8594;SDS011;4335;48.860;9.198;2022-07-22T07:52:14;8.90;;;8.00;;
8594;SDS011;4335;48.860;9.198;2022-07-22T07:54:41;7.65;;;6.95;;
8594;SDS011;4335;48.860;9.198;2022-07-22T07:57:09;7.72;;;7.00;;
8594;SDS011;4335;48.860;9.198;2022-07-22T07:59:37;8.68;;;7.80;;
8594;SDS011;4335;48.860;9.198;2022-07-22T08:02:03;10.13;;;9.18;;
8594;SDS011;4335;48.860;9.198;2022-07-22T08:04:31;11.45;;;8.25;;
8594;SDS011;4335;48.860;9.198;2022-07-22T08:06:58;8.55;;;7.78;;
8594;SDS011;4335;48.860;9.198;2022-07-22T08:09:28;8.65;;;7.32;;
8594;SDS011;4335;48.860;9.198;2022-07-22T08:11:55;9.45;;;8.57;;
8594;SDS011;4335;48.860;9.198;2022-07-22T08:14:22;7.65;;;7.05;;
8594;SDS011;4335;48.860;9.198;2022-07-22T08:16:49;8.95;;;8.05;;
8594;SDS011;4335;48.860;9.198;2022-07-22T08:19:16;8.63;;;7.82;;
8594;SDS011;4335;48.860;9.198;2022-07-22T08:21:43;8.45;;;7.68;;
8594;SDS011;4335;48.860;9.198;2022-07-22T08:24:16;7.50;;;6.82;;
8594;SDS011;4335;48.860;9.198;2022-07-22T08:26:43;8.15;;;7.45;;
8594;SDS011;4335;48.860;9.198;2022-07-22T08:29:09;8.25;;;7.53;;
8594;SDS011;4335;48.860;9.198;2022-07-22T08:31:36;7.80;;;6.97;;
8594;SDS011;4335;48.860;9.198;2022-07-22T08:34:03;8.15;;;7.35;;
8594;SDS011;4335;48.860;9.198;2022-07-22T08:36:30;8.05;;;7.15;;
8594;SDS011;4335;48.860;9.198;2022-07-22T08:39:04;7.82;;;7.18;;
8594;SDS011;4335;48.860;9.198;2022-07-22T08:41:33;7.88;;;7.15;;
8594;SDS011;4335;48.860;9.198;2022-07-22T08:44:02;7.65;;;6.85;;
8594;SDS011;4335;48.860;9.198;2022-07-22T08:46:36;7.68;;;6.97;;
8594;SDS011;4335;48.860;9.198;2022-07-22T08:49:03;7.85;;;7.03;;
8594;SDS011;4335;48.860;9.198;2022-07-22T08:51:40;7.03;;;6.45;;
8594;SDS011;4335;48.860;9.198;2022-07-22T08:54:08;8.60;;;7.90;;
8594;SDS011;4335;48.860;9.198;2022-07-22T08:56:35;9.32;;;8.52;;
8594;SDS011;4335;48.860;9.198;2022-07-22T08:59:05;8.85;;;8.15;;
8594;SDS011;4335;48.860;9.198;2022-07-22T09:01:34;7.82;;;6.90;;
8594;SDS011;4335;48.860;9.198;2022-07-22T09:04:07;9.48;;;7.40;;
8594;SDS011;4335;48.860;9.198;2022-07-22T09:06:33;7.70;;;7.10;;
8594;SDS011;4335;48.860;9.198;2022-07-22T09:09:14;8.07;;;7.32;;
8594;SDS011;4335;48.860;9.198;2022-07-22T09:11:40;9.07;;;8.27;;
8594;SDS011;4335;48.860;9.198;2022-07-22T09:14:10;7.85;;;7.15;;
8594;SDS011;4335;48.860;9.198;2022-07-22T09:16:40;7.85;;;7.05;;
8594;SDS011;4335;48.860;9.198;2022-07-22T09:19:09;8.13;;;7.43;;
8594;SDS011;4335;48.860;9.198;2022-07-22T09:21:41;9.00;;;8.20;;
8594;SDS011;4335;48.860;9.198;2022-07-22T09:24:25;8.25;;;7.65;;
8594;SDS011;4335;48.860;9.198;2022-07-22T09:26:55;8.82;;;7.90;;
8594;SDS011;4335;48.860;9.198;2022-07-22T09:29:22;7.47;;;6.88;;
8594;SDS011;4335;48.860;9.198;2022-07-22T09:31:52;7.82;;;7.13;;
8594;SDS011;4335;48.860;9.198;2022-07-22T09:34:25;7.85;;;7.05;;
8594;SDS011;4335;48.860;9.198;2022-07-22T09:36:53;7.82;;;7.13;;
8594;SDS011;4335;48.860;9.198;2022-07-22T09:39:24;7.70;;;6.85;;
8594;SDS011;4335;48.860;9.198;2022-07-22T09:41:58;6.72;;;6.13;;
8594;SDS011;4335;48.860;9.198;2022-07-22T09:44:26;6.18;;;5.55;;
8594;SDS011;4335;48.860;9.198;2022-07-22T09:46:53;7.22;;;6.55;;
8594;SDS011;4335;48.860;9.198;2022-07-22T09:49:29;6.78;;;6.07;;
8594;SDS011;4335;48.860;9.198;2022-07-22T09:51:57;10.00;;;6.28;;
8594;SDS011;4335;48.860;9.198;2022-07-22T09:54:26;7.03;;;6.50;;
8594;SDS011;4335;48.860;9.198;2022-07-22T09:56:54;7.50;;;6.80;;
8594;SDS011;4335;48.860;9.198;2022-07-22T09:59:20;8.05;;;7.40;;
8594;SDS011;4335;48.860;9.198;2022-07-22T10:01:47;6.63;;;5.82;;
8594;SDS011;4335;48.860;9.198;2022-07-22T10:04:19;6.40;;;5.90;;
8594;SDS011;4335;48.860;9.198;2022-07-22T10:06:53;6.22;;;5.63;;
8594;SDS011;4335;48.860;9.198;2022-07-22T10:09:22;7.25;;;6.43;;
8594;SDS011;4335;48.860;9.198;2022-07-22T10:11:50;5.45;;;5.05;;
8594;SDS011;4335;48.860;9.198;2022-07-22T10:14:19;6.47;;;5.82;;
8594;SDS011;4335;48.860;9.198;2022-07-22T10:16:50;6.72;;;6.03;;
8594;SDS011;4335;48.860;9.198;2022-07-22T10:19:20;6.15;;;5.63;;
8594;SDS011;4335;48.860;9.198;2022-07-22T10:21:50;6.57;;;5.88;;
8594;SDS011;4335;48.860;9.198;2022-07-22T10:24:17;5.80;;;5.18;;
8594;SDS011;4335;48.860;9.198;2022-07-22T10:26:50;5.50;;;5.03;;
8594;SDS011;4335;48.860;9.198;2022-07-22T10:29:28;5.40;;;4.90;;
8594;SDS011;4335;48.860;9.198;2022-07-22T10:32:21;6.20;;;5.70;;
8594;SDS011;4335;48.860;9.198;2022-07-22T10:37:55;6.05;;;5.35;;
8594;SDS011;4335;48.860;9.198;2022-07-22T10:40:25;5.88;;;5.30;;
8594;SDS011;4335;48.860;9.198;2022-07-22T10:43:06;6.53;;;5.93;;
8594;SDS011;4335;48.860;9.198;2022-07-22T10:45:36;6.55;;;5.78;;
8594;SDS011;4335;48.860;9.198;2022-07-22T10:48:09;6.88;;;5.28;;
8594;SDS011;4335;48.860;9.198;2022-07-22T10:50:40;6.55;;;5.90;;
8594;SDS011;4335;48.860;9.198;2022-07-22T10:53:12;6.32;;;5.82;;
8594;SDS011;4335;48.860;9.198;2022-07-22T10:58:49;10.70;;;9.68;;
8594;SDS011;4335;48.860;9.198;2022-07-22T11:01:18;7.57;;;6.88;;
8594;SDS011;4335;48.860;9.198;2022-07-22T11:03:50;7.30;;;6.60;;
8594;SDS011;4335;48.860;9.198;2022-07-22T11:06:18;6.70;;;6.20;;
8594;SDS011;4335;48.860;9.198;2022-07-22T11:08:48;7.20;;;6.55;;
8594;SDS011;4335;48.860;9.198;2022-07-22T11:11:17;7.07;;;6.40;;
8594;SDS011;4335;48.860;9.198;2022-07-22T11:13:44;6.72;;;6.13;;
8594;SDS011;4335;48.860;9.198;2022-07-22T11:16:16;8.45;;;6.93;;
8594;SDS011;4335;48.860;9.198;2022-07-22T11:18:45;11.60;;;10.40;;
8594;SDS011;4335;48.860;9.198;2022-07-22T11:21:18;7.68;;;6.97;;
8594;SDS011;4335;48.860;9.198;2022-07-22T11:23:46;7.35;;;6.47;;
8594;SDS011;4335;48.860;9.198;2022-07-22T11:26:16;6.97;;;6.38;;
8594;SDS011;4335;48.860;9.198;2022-07-22T11:28:45;7.03;;;6.47;;
8594;SDS011;4335;48.860;9.198;2022-07-22T11:31:14;6.68;;;6.18;;
8594;SDS011;4335;48.860;9.198;2022-07-22T11:33:43;7.00;;;6.30;;
8594;SDS011;4335;48.860;9.198;2022-07-22T11:36:10;7.63;;;6.90;;
8594;SDS011;4335;48.860;9.198;2022-07-22T11:38:50;7.50;;;6.88;;
8594;SDS011;4335;48.860;9.198;2022-07-22T11:41:17;7.13;;;6.53;;
8594;SDS011;4335;48.860;9.198;2022-07-22T11:43:45;7.85;;;7.15;;
8594;SDS011;4335;48.860;9.198;2022-07-22T11:46:12;7.85;;;6.47;;
8594;SDS011;4335;48.860;9.198;2022-07-22T11:48:41;7.05;;;6.35;;
8594;SDS011;4335;48.860;9.198;2022-07-22T11:51:27;8.02;;;7.32;;
8594;SDS011;4335;48.860;9.198;2022-07-22T11:53:55;7.22;;;6.53;;
8594;SDS011;4335;48.860;9.198;2022-07-22T11:56:26;7.32;;;6.55;;
8594;SDS011;4335;48.860;9.198;2022-07-22T11:58:53;7.50;;;6.90;;
8594;SDS011;4335;48.860;9.198;2022-07-22T12:01:28;6.93;;;6.28;;
8594;SDS011;4335;48.860;9.198;2022-07-22T12:03:59;7.53;;;6.82;;
8594;SDS011;4335;48.860;9.198;2022-07-22T12:06:27;7.90;;;6.57;;
8594;SDS011;4335;48.860;9.198;2022-07-22T12:08:56;6.82;;;6.13;;
8594;SDS011;4335;48.860;9.198;2022-07-22T12:11:29;6.50;;;5.90;;
8594;SDS011;4335;48.860;9.198;2022-07-22T12:14:01;6.90;;;5.97;;
8594;SDS011;4335;48.860;9.198;2022-07-22T12:16:35;7.05;;;6.35;;
8594;SDS011;4335;48.860;9.198;2022-07-22T12:19:07;7.07;;;6.47;;
8594;SDS011;4335;48.860;9.198;2022-07-22T12:21:36;7.60;;;6.18;;
8594;SDS011;4335;48.860;9.198;2022-07-22T12:24:15;6.72;;;6.07;;
8594;SDS011;4335;48.860;9.198;2022-07-22T12:26:53;6.70;;;5.97;;
8594;SDS011;4335;48.860;9.198;2022-07-22T12:29:21;7.63;;;5.50;;
8594;SDS011;4335;48.860;9.198;2022-07-22T12:31:51;5.93;;;5.43;;
8594;SDS011;4335;48.860;9.198;2022-07-22T12:34:38;6.00;;;5.50;;
8594;SDS011;4335;48.860;9.198;2022-07-22T12:37:13;7.07;;;6.47;;
8594;SDS011;4335;48.860;9.198;2022-07-22T12:39:54;7.90;;;7.05;;
8594;SDS011;4335;48.860;9.198;2022-07-22T12:42:22;8.63;;;6.50;;
8594;SDS011;4335;48.860;9.198;2022-07-22T12:44:50;6.40;;;5.90;;
8594;SDS011;4335;48.860;9.198;2022-07-22T12:53:01;7.00;;;6.30;;
8594;SDS011;4335;48.860;9.198;2022-07-22T12:55:33;6.95;;;6.10;;
8594;SDS011;4335;48.860;9.198;2022-07-22T12:58:05;6.03;;;5.53;;
8594;SDS011;4335;48.860;9.198;2022-07-22T13:00:34;6.07;;;5.57;;
8594;SDS011;4335;48.860;9.198;2022-07-22T13:03:04;7.50;;;5.95;;
8594;SDS011;4335;48.860;9.198;2022-07-22T13:05:31;6.18;;;5.57;;
8594;SDS011;4335;48.860;9.198;2022-07-22T13:08:00;6.70;;;5.90;;
8594;SDS011;4335;48.860;9.198;2022-07-22T13:10:27;6.57;;;5.55;;
8594;SDS011;4335;48.860;9.198;2022-07-22T13:12:54;6.15;;;5.57;;
8594;SDS011;4335;48.860;9.198;2022-07-22T13:15:21;5.80;;;5.30;;
8594;SDS011;4335;48.860;9.198;2022-07-22T13:17:48;5.95;;;5.45;;
8594;SDS011;4335;48.860;9.198;2022-07-22T13:20:16;6.60;;;6.00;;
8594;SDS011;4335;48.860;9.198;2022-07-22T13:22:44;6.85;;;6.10;;
8594;SDS011;4335;48.860;9.198;2022-07-22T13:25:12;5.88;;;5.28;;
8594;SDS011;4335;48.860;9.198;2022-07-22T13:27:39;5.97;;;5.45;;
8594;SDS011;4335;48.860;9.198;2022-07-22T13:30:06;6.00;;;5.55;;
8594;SDS011;4335;48.860;9.198;2022-07-22T13:32:37;5.47;;;4.97;;
8594;SDS011;4335;48.860;9.198;2022-07-22T13:35:04;5.78;;;4.93;;
8594;SDS011;4335;48.860;9.198;2022-07-22T13:37:31;6.38;;;5.78;;
8594;SDS011;4335;48.860;9.198;2022-07-22T13:40:00;6.70;;;6.00;;
8594;SDS011;4335;48.860;9.198;2022-07-22T13:42:28;6.55;;;6.05;;
8594;SDS011;4335;48.860;9.198;2022-07-22T13:44:54;6.47;;;5.90;;
8594;SDS011;4335;48.860;9.198;2022-07-22T13:47:24;6.32;;;5.72;;
8594;SDS011;4335;48.860;9.198;2022-07-22T13:49:52;5.20;;;4.72;;
8594;SDS011;4335;48.860;9.198;2022-07-22T13:52:19;5.80;;;5.22;;
8594;SDS011;4335;48.860;9.198;2022-07-22T13:54:45;5.70;;;5.10;;
8594;SDS011;4335;48.860;9.198;2022-07-22T13:57:12;6.38;;;5.88;;
8594;SDS011;4335;48.860;9.198;2022-07-22T13:59:45;5.90;;;5.40;;
8594;SDS011;4335;48.860;9.198;2022-07-22T14:02:18;5.78;;;5.20;;
8594;SDS011;4335;48.860;9.198;2022-07-22T14:04:48;7.03;;;6.43;;
8594;SDS011;4335;48.860;9.198;2022-07-22T14:07:18;6.60;;;5.53;;
8594;SDS011;4335;48.860;9.198;2022-07-22T14:09:45;7.60;;;6.85;;
8594;SDS011;4335;48.860;9.198;2022-07-22T14:12:15;5.90;;;5.35;;
8594;SDS011;4335;48.860;9.198;2022-07-22T14:14:42;6.72;;;5.50;;
8594;SDS011;4335;48.860;9.198;2022-07-22T14:17:09;6.22;;;5.72;;
8594;SDS011;4335;48.860;9.198;2022-07-22T14:19:39;8.23;;;6.97;;
8594;SDS011;4335;48.860;9.198;2022-07-22T14:22:06;6.55;;;5.10;;
8594;SDS011;4335;48.860;9.198;2022-07-22T14:24:32;5.95;;;5.38;;
8594;SDS011;4335;48.860;9.198;2022-07-22T14:27:01;6.13;;;5.57;;
8594;SDS011;4335;48.860;9.198;2022-07-22T14:29:28;7.93;;;7.10;;
8594;SDS011;4335;48.860;9.198;2022-07-22T14:31:55;6.95;;;6.35;;
8594;SDS011;4335;48.860;9.198;2022-07-22T14:34:22;8.77;;;5.57;;
8594;SDS011;4335;48.860;9.198;2022-07-22T14:36:51;5.97;;;5.47;;
8594;SDS011;4335;48.860;9.198;2022-07-22T14:39:21;5.70;;;5.20;;
8594;SDS011;4335;48.860;9.198;2022-07-22T14:41:48;6.55;;;5.95;;
8594;SDS011;4335;48.860;9.198;2022-07-22T14:44:18;6.65;;;5.63;;
8594;SDS011;4335;48.860;9.198;2022-07-22T14:46:45;5.88;;;5.30;;
8594;SDS011;4335;48.860;9.198;2022-07-22T14:49:14;7.35;;;5.93;;
8594;SDS011;4335;48.860;9.198;2022-07-22T14:51:42;6.50;;;5.80;;
8594;SDS011;4335;48.860;9.198;2022-07-22T14:54:09;6.00;;;5.38;;
8594;SDS011;4335;48.860;9.198;2022-07-22T14:56:36;5.80;;;5.20;;
8594;SDS011;4335;48.860;9.198;2022-07-22T14:59:03;5.60;;;5.10;;
8594;SDS011;4335;48.860;9.198;2022-07-22T15:01:31;6.65;;;5.95;;
8594;SDS011;4335;48.860;9.198;2022-07-22T15:03:57;6.28;;;4.97;;
8594;SDS011;4335;48.860;9.198;2022-07-22T15:06:24;6.05;;;5.22;;
8594;SDS011;4335;48.860;9.198;2022-07-22T15:08:55;5.53;;;5.07;;
8594;SDS011;4335;48.860;9.198;2022-07-22T15:11:24;5.10;;;4.60;;
8594;SDS011;4335;48.860;9.198;2022-07-22T15:13:54;6.63;;;5.43;;
8594;SDS011;4335;48.860;9.198;2022-07-22T15:16:23;5.38;;;4.88;;
8594;SDS011;4335;48.860;9.198;2022-07-22T15:18:56;5.45;;;4.95;;
8594;SDS011;4335;48.860;9.198;2022-07-22T15:21:23;5.38;;;4.88;;
8594;SDS011;4335;48.860;9.198;2022-07-22T15:23:49;6.40;;;4.80;;
8594;SDS011;4335;48.860;9.198;2022-07-22T15:26:20;5.63;;;5.22;;
8594;SDS011;4335;48.860;9.198;2022-07-22T15:28:56;5.55;;;5.15;;
8594;SDS011;4335;48.860;9.198;2022-07-22T15:31:22;5.47;;;5.05;;
8594;SDS011;4335;48.860;9.198;2022-07-22T15:33:51;5.68;;;5.20;;
8594;SDS011;4335;48.860;9.198;2022-07-22T15:36:18;8.65;;;5.22;;
8594;SDS011;4335;48.860;9.198;2022-07-22T15:38:45;5.03;;;4.63;;
8594;SDS011;4335;48.860;9.198;2022-07-22T15:41:15;5.50;;;5.00;;